Open Full Screen Window  High Contrast Mode
Wind Gusting 00 knots
05
October 22, 2014 5:20 PM CDT
Weather Information
Wind Direction
  210 °
Wind Speed
  05 kt (6 mph)
Wind Gust
  00 kt (0 mph)
Altimeter
29.95 in
Visibility
10 SM
Temperature
13° C
55° F
Dewpoint
13° C
55° F
Humidity
100%
1hr Rain Fall
00.00 in.
24hr Rain Fall
00.02 in.
Sky Condition
Overcast @ 4,300 ft
Broken @ 3,500 ft
VFR

METAR KMDS 222220Z AUTO 21005KT 10SM BKN035 OVC043 13/13 A2995 RMK AO2

*Background is not an actual portrayal of the airport.